Time;durP1;ratioP1;P1;durP2;ratioP2;P2;SDS_P1;SDS_P2;PMS_P1;PMS_P2;Temp;Humidity;BMP_temperature;BMP_pressure;BME280_temperature;BME280_humidity;BME280_pressure;Samples;Min_cycle;Max_cycle;Signal;HPM_P1;HPM_P2
2024/03/16 00:02:17;;;;;;;12.93;11.57;;;11.90;99.90;;;;;;5042125;28;20222;-73
2024/03/16 00:04:43;;;;;;;11.40;10.30;;;11.90;99.90;;;;;;5029372;28;20239;-73
2024/03/16 00:07:11;;;;;;;12.85;11.50;;;11.80;99.90;;;;;;5043604;28;20218;-73
2024/03/16 00:09:38;;;;;;;11.50;10.27;;;11.80;99.90;;;;;;5061268;28;20225;-73
2024/03/16 00:12:06;;;;;;;10.48;9.35;;;11.80;99.90;;;;;;5041177;28;20218;-73
2024/03/16 00:14:33;;;;;;;11.10;9.80;;;11.80;99.90;;;;;;5059111;28;20226;-73
2024/03/16 00:17:01;;;;;;;10.38;9.38;;;11.80;99.90;;;;;;5036423;28;20307;-73
2024/03/16 00:19:28;;;;;;;10.13;9.23;;;11.80;99.90;;;;;;5048990;28;20230;-73
2024/03/16 00:21:55;;;;;;;12.10;9.85;;;11.80;99.90;;;;;;5054219;28;20313;-73
2024/03/16 00:24:22;;;;;;;11.98;10.07;;;11.80;99.90;;;;;;5026926;28;20712;-73
2024/03/16 00:26:50;;;;;;;10.77;9.77;;;11.80;99.90;;;;;;5022082;28;20238;-73
2024/03/16 00:29:17;;;;;;;11.20;10.13;;;11.80;99.90;;;;;;5049298;28;20277;-73
2024/03/16 00:31:44;;;;;;;11.95;10.75;;;11.80;99.90;;;;;;5060356;28;20225;-73
2024/03/16 00:34:13;;;;;;;10.60;9.60;;;11.70;99.90;;;;;;5045609;28;20659;-73
2024/03/16 00:36:40;;;;;;;11.77;10.60;;;11.70;99.90;;;;;;5058735;28;20229;-73
2024/03/16 00:39:14;;;;;;;13.20;11.80;;;11.70;99.90;;;;;;5045903;28;20335;-73
2024/03/16 00:41:43;;;;;;;13.20;11.27;;;11.70;99.90;;;;;;5044228;28;20316;-73
2024/03/16 00:44:10;;;;;;;13.63;11.90;;;11.60;99.90;;;;;;5040740;28;20465;-73
2024/03/16 00:46:37;;;;;;;11.05;9.93;;;11.60;99.90;;;;;;5043170;28;20315;-74
2024/03/16 00:49:04;;;;;;;11.82;10.57;;;11.60;99.90;;;;;;5050038;28;20276;-73
2024/03/16 00:51:33;;;;;;;19.55;15.07;;;11.60;99.90;;;;;;5045239;28;20751;-73
2024/03/16 00:54:00;;;;;;;16.50;14.45;;;11.50;99.90;;;;;;5062985;28;20309;-73
2024/03/16 00:56:27;;;;;;;16.30;13.10;;;11.50;99.90;;;;;;5047424;28;20639;-73
2024/03/16 00:58:54;;;;;;;13.60;12.10;;;11.50;99.90;;;;;;5059407;28;20295;-73
2024/03/16 01:01:22;;;;;;;12.35;11.15;;;11.50;99.90;;;;;;5029037;28;20221;-73
2024/03/16 01:03:49;;;;;;;11.25;10.25;;;11.50;99.90;;;;;;5046053;28;20288;-73
2024/03/16 01:06:16;;;;;;;11.23;10.13;;;11.50;99.90;;;;;;5044479;28;20249;-73
2024/03/16 01:08:43;;;;;;;12.43;11.13;;;11.50;99.90;;;;;;5027249;28;20237;-72
2024/03/16 01:11:11;;;;;;;11.98;10.77;;;11.50;99.90;;;;;;5046635;28;20225;-73
2024/03/16 01:13:39;;;;;;;13.07;11.77;;;11.50;99.90;;;;;;5044108;28;20250;-73
2024/03/16 01:16:06;;;;;;;12.50;11.20;;;11.50;99.90;;;;;;5047890;28;20703;-73
2024/03/16 01:18:34;;;;;;;12.45;11.25;;;11.50;99.90;;;;;;5032493;28;20228;-72
2024/03/16 01:21:01;;;;;;;11.02;10.00;;;11.50;99.90;;;;;;5046860;28;20233;-73
2024/03/16 01:23:30;;;;;;;13.05;11.73;;;11.40;99.90;;;;;;5033516;28;20350;-73
2024/03/16 01:25:57;;;;;;;11.43;10.27;;;11.40;99.90;;;;;;5013618;28;20860;-73
2024/03/16 01:28:24;;;;;;;11.80;10.65;;;11.40;99.90;;;;;;5030584;28;20346;-72
2024/03/16 01:30:51;;;;;;;12.18;10.15;;;11.40;99.90;;;;;;5053570;28;20736;-72
2024/03/16 01:33:19;;;;;;;11.18;10.18;;;11.40;99.90;;;;;;5027234;28;20215;-72
2024/03/16 01:35:48;;;;;;;12.65;11.45;;;11.40;99.90;;;;;;5039956;28;20244;-73
2024/03/16 01:38:15;;;;;;;13.57;12.23;;;11.40;99.90;;;;;;5048816;28;20214;-74
2024/03/16 01:40:42;;;;;;;13.50;12.13;;;11.30;99.90;;;;;;5047985;28;20238;-73
2024/03/16 01:43:10;;;;;;;10.90;9.80;;;11.30;99.90;;;;;;5053385;28;20849;-73
2024/03/16 01:45:37;;;;;;;12.15;10.85;;;11.30;99.90;;;;;;5051119;28;20262;-73
2024/03/16 01:48:09;;;;;;;12.52;11.30;;;11.30;99.90;;;;;;5045737;28;20288;-73
2024/03/16 01:50:37;;;;;;;13.10;11.70;;;11.20;99.90;;;;;;5047786;28;20222;-73
2024/03/16 01:53:04;;;;;;;14.65;12.40;;;11.20;99.90;;;;;;5048688;28;20342;-74
2024/03/16 01:55:32;;;;;;;12.75;11.55;;;11.10;99.90;;;;;;5031400;28;20572;-73
2024/03/16 01:57:59;;;;;;;12.60;11.40;;;11.10;99.90;;;;;;5063058;28;20311;-73
2024/03/16 02:00:27;;;;;;;12.23;10.93;;;11.00;99.90;;;;;;5046575;28;20248;-72
2024/03/16 02:02:55;;;;;;;12.15;11.05;;;11.00;99.90;;;;;;5062290;28;20214;-72
2024/03/16 02:05:22;;;;;;;12.65;11.32;;;11.00;99.90;;;;;;5047732;28;20216;-72
2024/03/16 02:07:49;;;;;;;12.60;11.40;;;11.00;99.90;;;;;;5046958;28;20238;-72
2024/03/16 02:10:16;;;;;;;11.70;10.55;;;10.90;99.90;;;;;;5048733;28;20237;-72
2024/03/16 02:12:43;;;;;;;12.55;11.35;;;10.90;99.90;;;;;;5046377;28;20782;-72
2024/03/16 02:15:11;;;;;;;11.98;10.77;;;10.90;99.90;;;;;;5063745;28;20246;-73
2024/03/16 02:17:38;;;;;;;12.35;11.07;;;10.90;99.90;;;;;;5047290;28;20285;-72
2024/03/16 02:20:09;;;;;;;14.20;12.70;;;10.90;99.90;;;;;;5064359;28;20242;-72
2024/03/16 02:22:37;;;;;;;11.85;10.75;;;10.80;99.90;;;;;;5044608;28;20289;-72
2024/03/16 02:25:07;;;;;;;12.05;10.85;;;10.80;99.90;;;;;;5047724;28;20206;-73
2024/03/16 02:27:34;;;;;;;13.32;11.98;;;10.80;99.90;;;;;;5047213;28;20283;-73
2024/03/16 02:30:02;;;;;;;13.32;11.95;;;10.80;99.90;;;;;;5048109;28;20334;-72
2024/03/16 02:32:29;;;;;;;11.32;10.20;;;10.80;99.90;;;;;;5049371;28;20222;-73
2024/03/16 02:34:56;;;;;;;12.02;10.85;;;10.80;99.90;;;;;;5037582;28;20227;-72
2024/03/16 02:37:24;;;;;;;13.07;11.88;;;10.80;99.90;;;;;;5033840;28;20233;-73
2024/03/16 02:39:51;;;;;;;13.38;12.05;;;10.80;99.90;;;;;;5038296;28;20199;-73
2024/03/16 02:42:19;;;;;;;13.93;12.48;;;10.80;99.90;;;;;;5059320;28;20237;-72
2024/03/16 02:44:46;;;;;;;13.63;11.75;;;10.80;99.90;;;;;;5029198;28;20218;-72
2024/03/16 02:47:13;;;;;;;13.43;12.02;;;10.70;99.90;;;;;;5051337;28;20283;-72
2024/03/16 02:49:41;;;;;;;13.40;12.02;;;10.70;99.90;;;;;;5045617;28;20218;-72
2024/03/16 02:52:09;;;;;;;13.63;12.23;;;10.70;99.90;;;;;;5062776;28;20244;-72
2024/03/16 02:54:36;;;;;;;13.23;11.82;;;10.70;99.90;;;;;;5064233;28;20293;-73
2024/03/16 02:57:03;;;;;;;12.88;11.65;;;10.70;99.90;;;;;;5060622;28;20241;-72
2024/03/16 02:59:31;;;;;;;12.70;11.35;;;10.60;99.90;;;;;;5044625;28;20221;-73
2024/03/16 03:01:58;;;;;;;12.25;11.05;;;10.70;99.90;;;;;;5058416;28;20908;-72
2024/03/16 03:04:25;;;;;;;12.35;11.13;;;10.70;99.90;;;;;;5037420;28;20231;-72
2024/03/16 03:06:52;;;;;;;13.93;12.15;;;10.70;99.90;;;;;;5021498;28;20325;-72
2024/03/16 03:09:20;;;;;;;13.50;12.23;;;10.60;99.90;;;;;;5060752;28;20787;-72
2024/03/16 03:11:48;;;;;;;12.93;11.73;;;10.60;99.90;;;;;;5032775;28;20222;-72
2024/03/16 03:14:16;;;;;;;13.35;11.95;;;10.60;99.90;;;;;;5047196;28;20300;-72
2024/03/16 03:16:43;;;;;;;12.50;11.30;;;10.60;99.90;;;;;;5043604;28;20225;-73
2024/03/16 03:19:10;;;;;;;14.90;13.40;;;10.60;99.90;;;;;;5029568;28;20199;-72
2024/03/16 03:21:38;;;;;;;16.80;13.75;;;10.60;99.90;;;;;;5046678;28;20210;-72
2024/03/16 03:24:05;;;;;;;15.60;12.82;;;10.60;99.90;;;;;;5046225;28;20245;-73
2024/03/16 03:26:33;;;;;;;13.80;12.40;;;10.50;99.90;;;;;;5045342;28;20647;-73
2024/03/16 03:29:00;;;;;;;14.50;12.25;;;10.50;99.90;;;;;;5060758;28;20250;-73
2024/03/16 03:31:27;;;;;;;12.77;11.48;;;10.50;99.90;;;;;;5043597;28;20670;-73
2024/03/16 03:33:54;;;;;;;14.00;11.55;;;10.50;99.90;;;;;;5060092;28;20299;-73
2024/03/16 03:36:22;;;;;;;12.27;11.02;;;10.50;99.90;;;;;;5058594;28;20257;-73
2024/03/16 03:38:49;;;;;;;12.13;10.93;;;10.60;99.90;;;;;;5042373;28;20465;-73
2024/03/16 03:41:18;;;;;;;12.85;11.25;;;10.60;99.90;;;;;;5044107;28;20391;-73
2024/03/16 03:43:47;;;;;;;12.20;11.00;;;10.60;99.90;;;;;;5060698;28;20218;-73
2024/03/16 03:46:28;;;;;;;12.45;11.25;;;10.60;99.90;;;;;;5061469;28;20291;-73
2024/03/16 03:49:10;;;;;;;14.02;12.63;;;10.60;99.90;;;;;;5048330;28;20210;-73
2024/03/16 03:51:38;;;;;;;13.25;11.85;;;10.60;99.90;;;;;;5041567;28;20341;-72
2024/03/16 03:54:07;;;;;;;13.88;12.48;;;10.60;99.90;;;;;;5024711;28;20214;-72
2024/03/16 03:56:34;;;;;;;13.93;12.50;;;10.60;99.90;;;;;;5031032;28;20230;-72
2024/03/16 03:59:02;;;;;;;12.20;11.00;;;10.60;99.90;;;;;;5033435;28;20229;-73
2024/03/16 04:01:29;;;;;;;12.95;11.68;;;10.70;99.90;;;;;;5045350;28;20285;-72
2024/03/16 04:03:56;;;;;;;13.43;12.10;;;10.70;99.90;;;;;;5025030;28;20596;-73
2024/03/16 04:06:26;;;;;;;12.50;11.30;;;10.70;99.90;;;;;;5022200;28;20250;-73
2024/03/16 04:08:53;;;;;;;13.63;12.23;;;10.70;99.90;;;;;;5037495;28;20234;-73
2024/03/16 04:11:20;;;;;;;13.70;12.30;;;10.70;99.90;;;;;;5039062;28;20265;-73
2024/03/16 04:13:47;;;;;;;15.43;13.35;;;10.70;99.90;;;;;;5062185;28;20789;-73
2024/03/16 04:16:15;;;;;;;17.60;13.07;;;10.70;99.90;;;;;;5029226;28;20301;-73
2024/03/16 04:18:42;;;;;;;14.07;12.30;;;10.70;99.90;;;;;;5059694;28;20246;-73
2024/03/16 04:21:09;;;;;;;13.48;12.02;;;10.70;99.90;;;;;;5058277;28;20245;-73
2024/03/16 04:23:37;;;;;;;13.13;11.82;;;10.60;99.90;;;;;;5048272;28;20342;-73
2024/03/16 04:26:04;;;;;;;13.15;11.77;;;10.60;99.90;;;;;;5066714;28;20267;-73
2024/03/16 04:28:31;;;;;;;12.10;10.90;;;10.60;99.90;;;;;;5047392;28;20253;-73
2024/03/16 04:30:59;;;;;;;13.20;11.77;;;10.60;99.90;;;;;;5065136;28;20337;-73
2024/03/16 04:33:27;;;;;;;13.63;12.15;;;10.60;99.90;;;;;;5040974;28;20215;-73
2024/03/16 04:35:54;;;;;;;11.93;10.68;;;10.60;99.90;;;;;;5030933;28;20287;-73
2024/03/16 04:38:22;;;;;;;13.43;12.02;;;10.60;99.90;;;;;;5027555;28;20293;-72
2024/03/16 04:40:50;;;;;;;13.15;11.73;;;10.60;99.90;;;;;;5043166;28;20228;-73
2024/03/16 04:43:17;;;;;;;12.13;10.82;;;10.60;99.90;;;;;;5041569;28;20217;-73
2024/03/16 04:45:48;;;;;;;11.57;10.38;;;10.60;99.90;;;;;;5063870;28;20225;-73
2024/03/16 04:48:15;;;;;;;11.00;9.80;;;10.60;99.90;;;;;;5035075;28;20226;-73
2024/03/16 04:50:42;;;;;;;12.02;10.82;;;10.70;99.90;;;;;;5026914;28;20223;-73
2024/03/16 04:53:11;;;;;;;12.77;11.43;;;10.70;99.90;;;;;;5034622;28;20239;-73
2024/03/16 04:55:39;;;;;;;12.35;11.18;;;10.70;99.90;;;;;;5028505;28;20219;-73
2024/03/16 04:58:07;;;;;;;14.60;13.15;;;10.60;99.90;;;;;;5043659;28;20223;-73
2024/03/16 05:00:36;;;;;;;13.77;12.38;;;10.60;99.90;;;;;;5026078;28;20207;-73
2024/03/16 05:03:03;;;;;;;12.75;11.55;;;10.60;99.90;;;;;;5025959;28;20221;-73
2024/03/16 05:05:31;;;;;;;12.60;11.27;;;10.50;99.90;;;;;;5039616;28;20383;-73
2024/03/16 05:07:58;;;;;;;12.50;11.20;;;10.50;99.90;;;;;;5064732;28;20301;-74
2024/03/16 05:10:26;;;;;;;12.13;10.90;;;10.50;99.90;;;;;;5046199;28;20693;-73
2024/03/16 05:12:53;;;;;;;12.88;11.57;;;10.50;99.90;;;;;;5061551;28;20226;-71
2024/03/16 05:15:20;;;;;;;13.05;11.73;;;10.50;99.90;;;;;;5029012;28;20222;-73
2024/03/16 05:17:48;;;;;;;11.75;10.55;;;10.50;99.90;;;;;;5023091;28;20218;-75
2024/03/16 05:20:15;;;;;;;12.10;10.70;;;10.40;99.90;;;;;;5039267;28;21120;-73
2024/03/16 05:22:42;;;;;;;12.85;11.35;;;10.40;99.90;;;;;;5027665;28;20448;-73
2024/03/16 05:25:10;;;;;;;13.68;11.82;;;10.40;99.90;;;;;;5027999;28;20222;-73
2024/03/16 05:27:38;;;;;;;12.00;10.82;;;10.40;99.90;;;;;;5026602;28;20218;-73
2024/03/16 05:30:07;;;;;;;11.80;10.55;;;10.40;99.90;;;;;;5024638;28;20214;-73
2024/03/16 05:32:34;;;;;;;13.38;11.98;;;10.40;99.90;;;;;;5034545;28;20237;-73
2024/03/16 05:35:02;;;;;;;13.60;12.23;;;10.30;99.90;;;;;;5052008;28;20320;-72
2024/03/16 05:37:29;;;;;;;12.73;11.43;;;10.30;99.90;;;;;;5049195;28;20238;-73
2024/03/16 05:39:56;;;;;;;13.57;12.15;;;10.20;99.90;;;;;;5064360;28;20232;-72
2024/03/16 05:42:25;;;;;;;13.00;11.80;;;10.20;99.90;;;;;;5043691;28;20254;-73
2024/03/16 05:44:52;;;;;;;13.73;12.32;;;10.20;99.90;;;;;;5047277;28;20218;-73
2024/03/16 05:47:21;;;;;;;12.73;11.45;;;10.20;99.90;;;;;;5049415;28;20213;-73
2024/03/16 05:49:48;;;;;;;15.10;13.50;;;10.20;99.90;;;;;;5067707;28;20222;-73
2024/03/16 05:52:16;;;;;;;15.63;13.60;;;10.20;99.90;;;;;;5050384;28;20250;-72
2024/03/16 05:54:43;;;;;;;14.05;12.65;;;10.10;99.90;;;;;;5063916;28;20244;-73
2024/03/16 05:57:11;;;;;;;17.75;15.95;;;10.10;99.90;;;;;;5045839;28;20301;-73
2024/03/16 05:59:38;;;;;;;16.40;14.75;;;10.10;99.90;;;;;;5064481;28;20295;-71
2024/03/16 06:02:05;;;;;;;15.65;14.05;;;10.10;99.90;;;;;;5037607;28;20219;-73
2024/03/16 06:04:33;;;;;;;14.52;13.07;;;10.10;99.90;;;;;;5043832;28;20292;-72
2024/03/16 06:07:00;;;;;;;15.68;13.93;;;10.10;99.90;;;;;;5041248;28;20234;-74
2024/03/16 06:09:27;;;;;;;17.58;15.82;;;10.10;99.90;;;;;;5020577;28;20195;-73
2024/03/16 06:11:55;;;;;;;16.05;14.02;;;10.10;99.90;;;;;;5044845;28;20304;-73
2024/03/16 06:14:22;;;;;;;14.15;12.75;;;10.20;99.90;;;;;;5057266;28;20218;-73
2024/03/16 06:16:49;;;;;;;14.18;12.70;;;10.20;99.90;;;;;;5038055;28;20246;-73
2024/03/16 06:19:16;;;;;;;14.85;12.60;;;10.30;99.90;;;;;;5027644;28;20571;-73
2024/03/16 06:21:43;;;;;;;13.60;12.25;;;10.40;99.90;;;;;;5040366;28;20242;-73
2024/03/16 06:24:12;;;;;;;14.13;12.10;;;10.50;99.90;;;;;;5041873;28;20223;-73
2024/03/16 06:26:41;;;;;;;12.40;11.20;;;10.60;99.90;;;;;;5035054;28;20749;-73
2024/03/16 06:29:08;;;;;;;13.65;12.35;;;10.70;99.90;;;;;;5047388;28;20214;-73
2024/03/16 06:31:37;;;;;;;12.45;11.23;;;10.80;99.90;;;;;;5040784;28;20708;-73
2024/03/16 06:34:05;;;;;;;14.90;13.30;;;10.90;99.90;;;;;;5026540;28;20551;-72
2024/03/16 06:36:33;;;;;;;13.20;11.80;;;10.90;99.90;;;;;;5045503;28;20237;-72
2024/03/16 06:39:05;;;;;;;14.77;12.73;;;11.00;99.90;;;;;;5024654;28;20268;-73
2024/03/16 06:41:32;;;;;;;14.23;12.73;;;10.90;99.90;;;;;;5026468;28;20225;-72
2024/03/16 06:43:59;;;;;;;14.68;13.15;;;10.90;99.90;;;;;;5044625;28;20242;-73
2024/03/16 06:46:26;;;;;;;14.27;12.30;;;10.90;99.90;;;;;;5056558;28;20333;-72
2024/03/16 06:48:54;;;;;;;16.90;14.02;;;11.00;99.90;;;;;;5044146;28;20841;-73
2024/03/16 06:51:21;;;;;;;15.20;13.63;;;11.00;99.90;;;;;;5043683;28;20249;-73
2024/03/16 06:53:49;;;;;;;14.80;13.27;;;11.10;99.90;;;;;;5037409;28;20266;-74
2024/03/16 06:56:18;;;;;;;13.45;12.05;;;11.30;99.90;;;;;;5015623;28;20254;-74
2024/03/16 06:58:45;;;;;;;13.18;11.63;;;11.50;99.90;;;;;;5024589;28;20817;-74
2024/03/16 07:01:13;;;;;;;12.60;11.35;;;11.80;99.90;;;;;;5028694;28;20288;-75
2024/03/16 07:03:41;;;;;;;11.02;9.93;;;11.90;99.90;;;;;;5027384;28;20222;-75
2024/03/16 07:06:08;;;;;;;11.40;10.30;;;12.00;99.90;;;;;;5014062;28;20229;-75
2024/03/16 07:08:38;;;;;;;13.15;11.75;;;11.80;99.90;;;;;;5025230;28;20708;-74
2024/03/16 07:11:05;;;;;;;13.15;11.68;;;11.60;99.90;;;;;;5025464;28;20268;-74
2024/03/16 07:13:32;;;;;;;14.20;12.80;;;11.50;99.90;;;;;;5047411;28;20307;-73
2024/03/16 07:15:59;;;;;;;16.08;12.90;;;11.60;99.90;;;;;;5047490;28;20268;-74
2024/03/16 07:18:27;;;;;;;12.52;11.32;;;11.60;99.90;;;;;;5015250;28;20222;-73
2024/03/16 07:20:54;;;;;;;13.18;11.43;;;11.70;99.90;;;;;;5026819;28;20716;-73
2024/03/16 07:23:22;;;;;;;12.07;10.23;;;11.90;99.90;;;;;;5028575;28;20690;-73
2024/03/16 07:25:54;;;;;;;10.38;9.38;;;12.10;99.90;;;;;;5046631;28;20226;-75
2024/03/16 07:28:22;;;;;;;10.02;9.05;;;12.40;99.90;;;;;;5042855;28;20226;-75
2024/03/16 07:30:50;;;;;;;10.18;9.05;;;12.40;99.90;;;;;;5043124;28;20283;-75
2024/03/16 07:33:17;;;;;;;10.15;9.15;;;12.40;99.90;;;;;;5031793;28;20394;-75
2024/03/16 07:35:50;;;;;;;10.48;9.48;;;12.20;99.90;;;;;;5041648;28;20698;-75
2024/03/16 07:38:17;;;;;;;9.85;8.85;;;12.20;99.90;;;;;;5028347;28;20218;-74
2024/03/16 07:40:44;;;;;;;10.95;9.82;;;12.10;99.90;;;;;;5041335;28;20219;-74
2024/03/16 07:43:13;;;;;;;11.02;9.93;;;12.00;99.90;;;;;;5022853;28;20243;-75
2024/03/16 07:45:42;;;;;;;11.82;10.68;;;12.00;99.90;;;;;;5021840;28;20234;-74
2024/03/16 07:48:10;;;;;;;11.00;9.98;;;11.90;99.90;;;;;;5040429;28;20297;-74
2024/03/16 07:50:37;;;;;;;10.80;9.70;;;11.90;99.90;;;;;;5026109;28;20689;-75
2024/03/16 07:53:05;;;;;;;12.43;11.18;;;11.90;99.90;;;;;;5035059;28;20309;-74
2024/03/16 07:55:33;;;;;;;12.48;11.27;;;11.80;99.90;;;;;;5042866;28;20879;-75
2024/03/16 07:58:00;;;;;;;12.48;11.27;;;11.80;99.90;;;;;;5045718;28;20272;-76
2024/03/16 08:00:28;;;;;;;12.50;11.30;;;11.70;99.90;;;;;;5045900;28;20203;-75
2024/03/16 08:02:55;;;;;;;11.57;10.43;;;11.80;99.90;;;;;;5059013;28;20234;-75
2024/03/16 08:05:22;;;;;;;10.98;9.98;;;11.90;99.90;;;;;;5049851;28;20967;-74
2024/03/16 08:07:51;;;;;;;12.27;10.73;;;11.90;99.90;;;;;;5034871;28;20227;-74
2024/03/16 08:10:19;;;;;;;11.32;10.00;;;12.00;99.90;;;;;;5007590;28;21810;-75
2024/03/16 08:12:46;;;;;;;11.65;10.50;;;12.10;99.90;;;;;;5039967;28;20275;-76
2024/03/16 08:15:13;;;;;;;10.95;10.05;;;12.10;99.90;;;;;;5033583;28;20269;-73
2024/03/16 08:17:41;;;;;;;12.00;10.73;;;12.20;99.90;;;;;;5011200;28;20226;-79
2024/03/16 08:20:11;;;;;;;12.70;11.45;;;12.40;99.90;;;;;;5032072;28;20227;-79
2024/03/16 08:22:41;;;;;;;12.43;11.07;;;12.70;99.90;;;;;;5038335;28;20223;-79
2024/03/16 08:25:10;;;;;;;14.07;12.35;;;13.00;99.90;;;;;;5021801;28;20608;-77
2024/03/16 08:30:20;;;;;;;13.60;12.30;;;13.70;99.90;;;;;;5009791;28;20217;-84
2024/03/16 08:32:47;;;;;;;12.45;10.95;;;14.00;99.90;;;;;;4969582;28;20252;-83
2024/03/16 08:35:14;;;;;;;13.70;12.30;;;14.40;99.90;;;;;;5043713;28;20640;-80
2024/03/16 08:37:41;;;;;;;15.57;13.02;;;14.90;99.90;;;;;;4999386;28;20223;-83
2024/03/16 08:40:11;;;;;;;14.85;12.48;;;15.30;99.90;;;;;;5041438;28;20208;-85
2024/03/16 08:42:40;;;;;;;14.57;12.93;;;15.80;99.90;;;;;;5039822;28;20232;-85
2024/03/16 08:45:07;;;;;;;14.75;13.35;;;16.10;99.90;;;;;;5008439;28;22245;-86
2024/03/16 08:47:34;;;;;;;16.60;13.23;;;16.20;99.90;;;;;;5045443;28;20658;-87
2024/03/16 08:50:02;;;;;;;15.32;13.82;;;16.20;99.90;;;;;;4992605;28;20220;-83
2024/03/16 08:52:29;;;;;;;14.88;13.30;;;16.40;99.90;;;;;;4986771;28;20243;-84
2024/03/16 08:54:56;;;;;;;15.25;13.60;;;16.50;99.90;;;;;;5005099;28;20220;-84
2024/03/16 08:57:23;;;;;;;14.90;13.20;;;16.50;99.90;;;;;;5001245;28;20973;-86
2024/03/16 08:59:51;;;;;;;15.63;13.25;;;16.50;99.90;;;;;;5024162;28;20402;-80
2024/03/16 09:02:19;;;;;;;14.27;12.52;;;16.80;99.90;;;;;;5039012;28;20224;-80
2024/03/16 09:04:47;;;;;;;14.75;13.23;;;17.20;99.90;;;;;;4985897;28;20224;-83
2024/03/16 09:07:14;;;;;;;15.15;13.65;;;17.50;99.90;;;;;;5019315;28;20218;-82
2024/03/16 09:09:41;;;;;;;12.65;11.45;;;17.70;99.90;;;;;;4994530;28;20682;-82
2024/03/16 09:12:09;;;;;;;13.50;12.20;;;18.00;99.90;;;;;;4984582;28;20248;-83
2024/03/16 09:14:36;;;;;;;14.57;13.13;;;18.20;99.90;;;;;;5038279;28;20845;-82
2024/03/16 09:17:04;;;;;;;15.60;13.80;;;18.30;99.90;;;;;;5024385;28;20251;-82
2024/03/16 09:19:32;;;;;;;14.60;12.88;;;18.40;99.90;;;;;;5024264;28;20230;-83
2024/03/16 09:21:59;;;;;;;14.82;13.40;;;18.60;99.90;;;;;;5039500;28;20287;-83
2024/03/16 09:24:27;;;;;;;15.05;13.45;;;18.80;99.90;;;;;;5025016;28;20217;-81
2024/03/16 09:26:54;;;;;;;13.52;12.13;;;19.00;99.90;;;;;;4995699;28;20242;-85
2024/03/16 09:29:21;;;;;;;14.90;12.60;;;19.00;99.90;;;;;;5040283;28;20613;-83
2024/03/16 09:31:48;;;;;;;13.90;12.50;;;18.80;99.90;;;;;;5035978;28;20303;-82
2024/03/16 09:34:15;;;;;;;13.68;11.23;;;18.80;99.90;;;;;;5040187;28;20264;-83
2024/03/16 09:36:42;;;;;;;13.35;11.75;;;18.70;99.90;;;;;;4991715;28;20630;-84
2024/03/16 09:39:10;;;;;;;15.27;12.40;;;18.80;99.90;;;;;;5050074;28;20750;-82
2024/03/16 09:41:39;;;;;;;14.20;12.38;;;18.80;99.90;;;;;;5027903;28;20220;-81
2024/03/16 09:44:08;;;;;;;12.40;11.20;;;19.00;99.90;;;;;;5018491;28;20777;-85
2024/03/16 09:46:35;;;;;;;12.57;11.23;;;19.30;99.90;;;;;;5041675;28;20763;-86
2024/03/16 09:49:03;;;;;;;16.35;12.98;;;19.50;99.90;;;;;;4992641;28;20261;-83
2024/03/16 09:51:31;;;;;;;14.50;13.05;;;19.60;99.90;;;;;;5009332;28;20775;-81
2024/03/16 09:53:58;;;;;;;14.65;13.15;;;19.80;99.90;;;;;;5010126;28;20270;-82
2024/03/16 09:56:25;;;;;;;15.65;13.60;;;19.90;99.90;;;;;;4995175;28;20762;-81
2024/03/16 09:58:53;;;;;;;17.58;14.07;;;19.60;99.90;;;;;;4989408;28;20228;-83
2024/03/16 10:01:20;;;;;;;13.90;12.43;;;19.50;99.90;;;;;;5010074;28;20236;-81
2024/03/16 10:03:47;;;;;;;16.00;13.68;;;19.60;99.90;;;;;;5041317;28;20221;-80
2024/03/16 10:06:16;;;;;;;14.35;12.82;;;19.70;99.90;;;;;;4996279;28;20216;-80
2024/03/16 10:08:44;;;;;;;16.05;14.48;;;19.90;99.90;;;;;;5027947;28;20220;-79
2024/03/16 10:11:15;;;;;;;15.07;13.48;;;19.80;99.90;;;;;;4994202;28;20220;-82
2024/03/16 10:13:43;;;;;;;15.02;13.27;;;19.80;99.90;;;;;;5018261;28;20315;-84
2024/03/16 10:16:12;;;;;;;16.30;14.60;;;19.70;99.90;;;;;;5026460;28;20216;-80
2024/03/16 10:18:39;;;;;;;15.88;14.18;;;19.70;99.90;;;;;;5011343;28;20250;-79
2024/03/16 10:21:08;;;;;;;16.38;14.15;;;19.60;99.90;;;;;;4992740;28;20224;-79
2024/03/16 10:23:36;;;;;;;17.08;14.35;;;19.80;99.90;;;;;;5010995;28;20595;-78
2024/03/16 10:26:08;;;;;;;16.45;14.85;;;19.90;99.90;;;;;;5041434;28;20212;-77
2024/03/16 10:28:36;;;;;;;16.17;14.57;;;19.90;99.90;;;;;;5030275;28;20281;-78
2024/03/16 10:31:03;;;;;;;14.10;12.45;;;20.10;99.90;;;;;;5042435;28;20213;-79
2024/03/16 10:33:30;;;;;;;14.95;13.45;;;20.40;99.90;;;;;;5009161;28;20334;-77
2024/03/16 10:35:59;;;;;;;12.50;10.55;;;20.60;99.90;;;;;;4995363;28;20220;-78
2024/03/16 10:38:26;;;;;;;14.90;13.45;;;20.80;99.90;;;;;;5012857;28;20274;-78
2024/03/16 10:40:53;;;;;;;14.30;12.90;;;20.80;99.90;;;;;;4991083;28;20220;-79
2024/03/16 10:43:19;;;;;;;15.13;13.25;;;20.70;99.90;;;;;;4992499;28;20232;-79
2024/03/16 10:45:46;;;;;;;14.48;12.75;;;20.60;99.90;;;;;;4999593;28;20677;-78
2024/03/16 10:48:14;;;;;;;15.73;12.82;;;20.50;99.90;;;;;;4998494;28;20722;-80
2024/03/16 10:50:43;;;;;;;12.88;11.57;;;20.40;99.90;;;;;;5047329;28;20306;-77
2024/03/16 10:53:10;;;;;;;16.00;13.60;;;20.10;99.90;;;;;;4997192;28;20609;-78
2024/03/16 10:55:39;;;;;;;15.30;13.75;;;19.80;99.90;;;;;;4991259;28;20220;-81
2024/03/16 10:58:07;;;;;;;13.73;11.82;;;19.30;99.90;;;;;;5036940;28;20599;-79
2024/03/16 11:00:37;;;;;;;13.13;11.85;;;19.70;99.90;;;;;;5051212;28;20199;-81
2024/03/16 11:03:07;;;;;;;14.07;12.77;;;20.10;99.90;;;;;;4992780;28;20228;-77
2024/03/16 11:05:34;;;;;;;11.75;10.65;;;20.60;99.90;;;;;;5019714;28;20216;-79
2024/03/16 11:08:01;;;;;;;12.40;10.35;;;20.90;99.90;;;;;;4990271;28;20265;-78
2024/03/16 11:10:38;;;;;;;13.80;11.98;;;21.50;99.90;;;;;;5037664;28;20230;-79
2024/03/16 11:13:15;;;;;;;12.02;10.82;;;21.80;99.90;;;;;;5035358;28;20310;-78
2024/03/16 11:15:42;;;;;;;13.77;12.18;;;21.40;99.90;;;;;;5025581;28;20563;-77
2024/03/16 11:18:43;;;;;;;9.77;8.85;;;20.90;99.90;;;;;;4995881;28;20220;-78
2024/03/16 11:21:15;;;;;;;13.27;11.93;;;20.90;99.90;;;;;;5039682;28;20226;-79
2024/03/16 11:23:42;;;;;;;12.50;11.30;;;20.70;99.90;;;;;;4994137;28;20316;-78
2024/03/16 11:26:36;;;;;;;11.88;10.57;;;20.60;99.90;;;;;;5040988;28;20228;-79
2024/03/16 11:29:09;;;;;;;12.23;10.90;;;20.50;99.90;;;;;;5037943;28;20224;-80
2024/03/16 11:31:36;;;;;;;11.70;10.50;;;20.60;99.90;;;;;;5018230;28;20255;-78
2024/03/16 11:34:04;;;;;;;12.75;11.30;;;21.10;99.90;;;;;;4997951;28;20710;-79
2024/03/16 11:36:32;;;;;;;12.75;11.30;;;21.40;99.90;;;;;;4991733;28;20228;-79
2024/03/16 11:39:07;;;;;;;12.52;10.85;;;21.40;99.90;;;;;;4993514;28;20216;-80
2024/03/16 11:41:33;;;;;;;11.63;9.75;;;21.30;99.90;;;;;;5000320;28;20277;-79
2024/03/16 11:44:00;;;;;;;11.43;10.27;;;21.30;99.90;;;;;;4995457;28;20220;-79
2024/03/16 11:46:26;;;;;;;11.70;10.48;;;21.50;99.90;;;;;;5037738;28;20302;-79
2024/03/16 11:48:53;;;;;;;9.80;8.60;;;21.30;99.90;;;;;;5042443;28;20347;-78
2024/03/16 11:51:25;;;;;;;10.45;9.23;;;21.00;99.90;;;;;;5009443;28;20583;-79
2024/03/16 11:53:52;;;;;;;11.05;9.95;;;21.30;99.90;;;;;;4993221;28;20650;-80
2024/03/16 11:56:18;;;;;;;9.32;8.43;;;21.40;99.90;;;;;;5015566;28;20260;-79
2024/03/16 11:58:45;;;;;;;9.13;8.23;;;21.40;99.90;;;;;;5046202;28;20254;-78
2024/03/16 12:01:13;;;;;;;11.23;9.38;;;21.10;99.90;;;;;;5044386;28;20287;-78
2024/03/16 12:03:40;;;;;;;9.60;8.65;;;20.50;99.90;;;;;;4994195;28;20232;-78
2024/03/16 12:06:06;;;;;;;9.98;8.98;;;20.20;99.90;;;;;;5026365;28;20223;-79
2024/03/16 12:08:33;;;;;;;8.00;7.20;;;19.80;99.90;;;;;;5042887;28;20231;-78
2024/03/16 12:11:00;;;;;;;8.00;7.20;;;19.60;99.90;;;;;;5021286;28;20231;-80
2024/03/16 15:32:06;;;;;;;2.58;2.38;;;19.90;99.90;;;;;;5009804;28;20216;-74
2024/03/16 15:34:33;;;;;;;2.90;2.50;;;19.70;99.90;;;;;;4989870;28;20229;-74
2024/03/16 15:37:01;;;;;;;2.47;2.28;;;19.60;99.90;;;;;;4990733;28;20239;-75
2024/03/16 15:39:27;;;;;;;2.28;2.10;;;19.60;99.90;;;;;;4994652;28;20199;-75
2024/03/16 15:41:54;;;;;;;2.05;1.95;;;19.50;99.90;;;;;;5005641;28;20231;-74
2024/03/16 15:44:21;;;;;;;2.03;1.80;;;19.60;99.90;;;;;;4986056;28;20701;-74
2024/03/16 15:46:48;;;;;;;1.73;1.63;;;19.60;99.90;;;;;;4988379;28;20235;-74
2024/03/16 15:49:15;;;;;;;1.73;1.63;;;19.60;99.90;;;;;;4993990;28;20673;-74
2024/03/16 15:51:42;;;;;;;2.40;1.90;;;19.60;99.90;;;;;;5009321;28;20258;-74
2024/03/16 15:54:09;;;;;;;1.63;1.52;;;19.60;99.90;;;;;;5008739;28;20219;-74